Webcam Meteoipassi more information Webcam Meteoipassi


Pisa torre orologio more information Pisa torre orologio


altri nostri siti meteo:

Pomeziameteo 1Sito sul meteo

Pomeziameteo DashboardSito sul meteo

Caput FrigorisSito sul meteo

BarcellonameteoSito sul meteo

MeteoipassiSito sul meteo

ViterbometeoSito sul meteo

MeteotortoretoSito sul meteo

TortoretometeolidoSito sul meteo

MeteoGonzagaSito sul meteo



Nessuna attenzione particolare richiesta.    Non ci sono allerte meteo

Report METAR

   
LIRQ - Firenze
Dati ricevuti: Apr 26 2018 1:20 pm
Sereno  
Sereno  
   Vento: Variabile 5.6 km/h
Vento: Variabile 5.6 km/h
Temperatura: 25°C
P.to Rugiada: 10°C
Umidita: 39%
Barometro: 1013 hPa
Visibilita: oltre 10 km
dettagli cloud: Sereno
LIRQ 261120Z VRB03KT CAVOK 25/10 Q1013
LIRP - Lucca
Dati ricevuti: Apr 26 2018 1:15 pm
Sereno  
Sereno  
   Vento: West 13 km/h
Vento: West 13 km/h
Temperatura: 21°C
P.to Rugiada: 12°C
Umidita: 57%
Barometro: 1014 hPa
Visibilita: oltre 10 km
dettagli cloud: Sereno
LIRP 261115Z 27007KT 200V320 CAVOK 21/12 Q1014 NOSIG
LIRP - Livorno
Dati ricevuti: Apr 26 2018 1:15 pm
Sereno  
Sereno  
   Vento: West 13 km/h
Vento: West 13 km/h
Temperatura: 21°C
P.to Rugiada: 12°C
Umidita: 57%
Barometro: 1014 hPa
Visibilita: oltre 10 km
dettagli cloud: Sereno
LIRP 261115Z 27007KT 200V320 CAVOK 21/12 Q1014 NOSIG
LIMP - Parma
Dati ricevuti: Apr 26 2018 12:50 pm
Sereno  
Sereno  
   Vento: Variabile 5.6 km/h
Vento: Variabile 5.6 km/h
Temperatura: 24°C
P.to Rugiada: 14°C
Umidita: 54%
Barometro: 1012 hPa
Visibilita: oltre 10 km
dettagli cloud: Sereno
LIMP 261050Z VRB03KT CAVOK 24/14 Q1012
LIRF - Roma
Dati ricevuti: Apr 26 2018 1:20 pm
Sereno  
Sereno  
   Vento: W 14.8 km/h
Vento: W 14.8 km/h
Temperatura: 23°C
P.to Rugiada: 9°C
Umidita: 41%
Barometro: 1014 hPa
Visibilita: oltre 10 km
dettagli cloud: Sereno
LIRF 261120Z 25008KT 220V280 CAVOK 23/09 Q1014 NOSIG
 

Script sviluppato da  Saratoga-weather.org Adattato per il modello da  Weerstation Leuven

Potete trovare le nostre info meteo anche a:

European Weather Network

Weather Underground

AWEKAS

HAMweather, WeatherForYou, PWS Weather

Strumentazione usata:

Stazione meteo
Oregon Scientific WMR88

Programma gestore dati meteo
WVIEW

Server per i dati meteo
WDS-5

Provider
Anemos WDS-5

Oregon Scientific WMR88

WVIEW

WDS-5

Anemos WDS-5